Huvudsida
METAR-TAF:

METAR-TAF

Flygplatser :

Dubais internationella flygplats

Dubai, Förenade Arabemiraten

latitud: 25-15-10N, longitud: 055-21-52E, höjd: 8 m

Aktuellt väderrapport

Denna rapport gjordes för 1 timme och 12 minuter sedan, klockan 00:00 UTC
Vind 12 kt från väst/nordväst, varierande mellan syd och nordväst
Temperatur 25°C
Fuktighet 61%
Tryck 1014 hPa
Sikt 10 km eller mer
Inga moln under 1 500 m eller inga cumulonimbus

METAR: OMDB 100000Z 29012KT 190V320 CAVOK 25/17 Q1014 NOSIG

Tid: 05:12 (01:12 UTC)

Väderprognos

Denna rapport gjordes för 2 timmar och 22 minuter sedan, klockan 22:50 UTC
Prognos gäller från 10 kl. 00 UTC till 11 kl. 06 UTC
Vind 12 kt från väst/nordväst
Sikt 10 km eller mer
Inga moln under 1 500 m eller inga cumulonimbus
Sannolikhet 30%
från 10 kl. 00 UTC till 10 kl. 04 UTC
Vind 7 kt från sydväst
Blir
från 10 kl. 17 UTC till 10 kl. 19 UTC
Vind 5 kt från syd

TAF: OMDB 092250Z 1000/1106 29012KT CAVOK PROB30 1000/1004 22007KT BECMG 1017/1019 18005KT

Aktuella väderrapporter och prognoser från 4000 flygplatser (METAR- och TAF-rapporter).

De tillgängliga stationerna syns som gula och röda prickar på kartan.

För musen över prickarna för att se namnen på stationerna.

Klicka sedan för att få väderrapporter och prognoser.

För att ändra kartan: Klicka på de gröna knapparna med ett svart kors på för att zooma in; den gröna knappen med ett streck på för att zooma ut; eller på de gröna pilarna för angränsande kartor.


METAR-TAF: